Time;durP1;ratioP1;P1;durP2;ratioP2;P2;SDS_P1;SDS_P2;PMS_P1;PMS_P2;Temp;Humidity;BMP_temperature;BMP_pressure;BME280_temperature;BME280_humidity;BME280_pressure;Samples;Min_cycle;Max_cycle;Signal;HPM_P1;HPM_P2
2021/06/14 00:01:52;;;;;;;0.50;0.50;;;12.90;99.90;;;;;;5073010;28;20191;-71
2021/06/14 00:04:18;;;;;;;0.30;0.30;;;12.90;99.90;;;;;;5072980;28;20638;-71
2021/06/14 00:06:44;;;;;;;0.10;0.10;;;12.80;99.90;;;;;;5072638;28;20200;-71
2021/06/14 00:09:11;;;;;;;0.75;0.40;;;12.70;99.90;;;;;;5090593;28;20164;-71
2021/06/14 00:11:38;;;;;;;0.13;0.13;;;12.70;99.90;;;;;;5090802;28;20180;-71
2021/06/14 00:14:04;;;;;;;1.10;0.73;;;12.70;99.90;;;;;;5090794;28;20168;-71
2021/06/14 00:16:31;;;;;;;0.20;0.20;;;12.70;99.90;;;;;;5090505;28;20533;-71
2021/06/14 00:18:57;;;;;;;6.32;0.95;;;12.60;99.90;;;;;;5090720;28;20171;-71
2021/06/14 00:21:24;;;;;;;0.00;0.00;;;12.50;99.90;;;;;;5090614;28;20173;-71
2021/06/14 00:23:50;;;;;;;0.10;0.10;;;12.50;99.90;;;;;;5090604;28;20184;-71
2021/06/14 00:26:16;;;;;;;0.43;0.43;;;12.50;99.90;;;;;;5090483;28;20164;-71
2021/06/14 00:28:42;;;;;;;0.20;0.20;;;12.50;99.90;;;;;;5090484;28;20164;-71
2021/06/14 00:31:09;;;;;;;0.45;0.30;;;12.40;99.90;;;;;;5090600;28;20179;-71
2021/06/14 00:33:37;;;;;;;0.10;0.10;;;12.40;99.90;;;;;;5089425;28;20163;-71
2021/06/14 00:36:04;;;;;;;0.10;0.10;;;12.30;99.90;;;;;;5090271;28;20217;-71
2021/06/14 00:38:30;;;;;;;0.28;0.28;;;12.20;99.90;;;;;;5072226;28;20260;-71
2021/06/14 00:40:56;;;;;;;0.20;0.20;;;12.20;99.90;;;;;;5090013;28;20211;-71
2021/06/14 00:43:22;;;;;;;3.83;0.63;;;12.20;99.90;;;;;;5090143;28;20175;-71
2021/06/14 00:45:50;;;;;;;0.25;0.25;;;12.20;99.90;;;;;;5090168;28;20167;-71
2021/06/14 00:48:17;;;;;;;0.10;0.10;;;12.10;99.90;;;;;;5090030;28;20220;-71
2021/06/14 00:50:57;;;;;;;0.00;0.00;;;12.00;99.90;;;;;;5090072;28;20178;-70
2021/06/14 00:53:27;;;;;;;0.28;0.28;;;12.00;99.90;;;;;;5090030;28;20151;-71
2021/06/14 00:55:53;;;;;;;0.05;0.05;;;11.90;99.90;;;;;;5089919;28;20194;-70
2021/06/14 00:58:20;;;;;;;1.77;1.65;;;11.80;99.90;;;;;;5089862;28;20188;-70
2021/06/14 01:00:46;;;;;;;0.28;0.28;;;11.80;99.90;;;;;;5089883;28;20528;-70
2021/06/14 01:03:13;;;;;;;0.35;0.35;;;11.90;99.90;;;;;;5089956;28;20575;-71
2021/06/14 01:05:43;;;;;;;0.43;0.35;;;11.80;99.90;;;;;;5089811;28;20160;-71
2021/06/14 01:08:10;;;;;;;3.50;0.82;;;11.90;99.90;;;;;;5062001;28;20204;-71
2021/06/14 01:10:38;;;;;;;0.25;0.25;;;11.80;99.90;;;;;;5069129;28;20746;-70
2021/06/14 01:13:31;;;;;;;0.30;0.30;;;11.90;99.90;;;;;;5069669;28;20605;-71
2021/06/14 01:16:05;;;;;;;0.10;0.10;;;11.90;99.90;;;;;;5078140;28;20202;-71
2021/06/14 01:18:55;;;;;;;0.30;0.30;;;11.90;99.90;;;;;;5089471;28;20217;-71
2021/06/14 01:21:28;;;;;;;0.38;0.38;;;11.70;99.90;;;;;;5071546;28;20202;-71
2021/06/14 01:24:03;;;;;;;0.38;0.38;;;11.70;99.90;;;;;;5085517;28;20196;-70
2021/06/14 01:26:37;;;;;;;1.05;1.02;;;11.70;99.90;;;;;;5051452;28;20183;-71
2021/06/14 01:29:04;;;;;;;0.50;0.45;;;11.60;99.90;;;;;;5051421;28;20240;-71
2021/06/14 01:31:34;;;;;;;0.20;0.20;;;11.50;99.90;;;;;;5069401;28;20165;-71
2021/06/14 01:34:01;;;;;;;2.17;1.05;;;11.60;99.90;;;;;;5069381;28;20165;-71
2021/06/14 01:36:31;;;;;;;1.08;1.05;;;11.50;99.90;;;;;;5069131;28;20212;-71
2021/06/14 01:38:58;;;;;;;0.40;0.30;;;11.40;99.90;;;;;;5051303;28;20172;-71
2021/06/14 01:41:26;;;;;;;0.40;0.40;;;11.40;99.90;;;;;;5055022;28;20235;-71
2021/06/14 01:43:53;;;;;;;1.10;0.80;;;11.40;99.90;;;;;;5068880;28;20180;-70
2021/06/14 01:46:30;;;;;;;1.23;1.13;;;11.40;99.90;;;;;;5067918;28;20180;-70
2021/06/14 01:48:57;;;;;;;0.55;0.55;;;11.40;99.90;;;;;;5067898;28;20169;-71
2021/06/14 01:51:28;;;;;;;0.43;0.28;;;11.30;99.90;;;;;;5069262;28;20172;-70
2021/06/14 01:54:04;;;;;;;0.38;0.38;;;11.30;99.90;;;;;;5069170;28;20240;-70
2021/06/14 01:56:49;;;;;;;0.32;0.32;;;11.30;99.90;;;;;;5068893;28;20190;-71
2021/06/14 01:59:43;;;;;;;0.10;0.10;;;11.30;99.90;;;;;;5069103;28;20199;-71
2021/06/14 02:02:09;;;;;;;0.10;0.10;;;11.30;99.90;;;;;;5064873;28;20184;-71
2021/06/14 02:04:37;;;;;;;0.05;0.05;;;11.20;99.90;;;;;;5067857;28;20172;-70
2021/06/14 02:07:04;;;;;;;11.70;0.63;;;11.20;99.90;;;;;;5064030;28;20201;-70
2021/06/14 02:09:32;;;;;;;0.10;0.10;;;11.20;99.90;;;;;;5049035;28;20165;-70
2021/06/14 02:12:02;;;;;;;0.10;0.10;;;11.10;99.90;;;;;;5047742;28;20192;-71
2021/06/14 02:14:33;;;;;;;0.43;0.43;;;11.10;99.90;;;;;;5049019;28;20157;-71
2021/06/14 02:17:11;;;;;;;0.22;0.17;;;11.10;99.90;;;;;;5067284;28;20200;-71
2021/06/14 02:19:39;;;;;;;0.75;0.75;;;11.10;99.90;;;;;;5068887;28;20248;-71
2021/06/14 02:22:05;;;;;;;0.77;0.73;;;11.10;99.90;;;;;;5068851;28;20162;-71
2021/06/14 02:24:32;;;;;;;0.40;0.40;;;11.00;99.90;;;;;;5068875;28;20157;-71
2021/06/14 02:26:59;;;;;;;0.25;0.15;;;11.00;99.90;;;;;;5068697;28;20200;-71
2021/06/14 02:29:25;;;;;;;0.20;0.20;;;11.00;99.90;;;;;;5068695;28;20231;-70
2021/06/14 02:31:51;;;;;;;0.10;0.10;;;10.90;99.90;;;;;;5068723;28;20161;-70
2021/06/14 02:34:17;;;;;;;0.10;0.10;;;11.00;99.90;;;;;;5068507;28;20164;-70
2021/06/14 02:36:45;;;;;;;0.10;0.10;;;10.90;99.90;;;;;;5067244;28;20223;-70
2021/06/14 02:39:15;;;;;;;0.20;0.20;;;10.90;99.90;;;;;;5068633;28;20216;-71
2021/06/14 02:41:43;;;;;;;0.40;0.40;;;10.80;99.90;;;;;;5075586;28;20211;-71
2021/06/14 02:44:10;;;;;;;0.15;0.15;;;10.80;99.90;;;;;;5088580;28;20171;-70
2021/06/14 02:46:40;;;;;;;0.43;0.43;;;10.80;99.90;;;;;;5088561;28;20167;-71
2021/06/14 02:49:08;;;;;;;0.10;0.10;;;10.80;99.90;;;;;;5070566;28;20205;-72
2021/06/14 02:51:38;;;;;;;0.52;0.52;;;10.80;99.90;;;;;;5070539;28;20240;-72
2021/06/14 02:54:20;;;;;;;1.05;1.05;;;10.80;99.90;;;;;;5088414;28;20164;-70
2021/06/14 02:56:49;;;;;;;0.25;0.25;;;10.80;99.90;;;;;;5090400;28;20208;-70
2021/06/14 02:59:18;;;;;;;0.50;0.50;;;10.70;99.90;;;;;;5091253;28;20250;-71
2021/06/14 03:01:48;;;;;;;0.32;0.17;;;10.70;99.90;;;;;;5091929;28;20625;-71
2021/06/14 03:04:16;;;;;;;0.22;0.22;;;10.70;99.90;;;;;;5091933;28;20153;-70
2021/06/14 03:06:44;;;;;;;0.10;0.10;;;10.70;99.90;;;;;;5091922;28;20190;-70
2021/06/14 03:09:11;;;;;;;0.45;0.45;;;10.70;99.90;;;;;;5091352;28;20200;-70
2021/06/14 03:11:40;;;;;;;0.60;0.60;;;10.70;99.90;;;;;;5091789;28;20156;-70
2021/06/14 03:14:07;;;;;;;0.30;0.30;;;10.80;99.90;;;;;;5091873;28;20682;-71
2021/06/14 03:16:34;;;;;;;13.15;1.35;;;10.70;99.90;;;;;;5091730;28;20281;-72
2021/06/14 03:19:02;;;;;;;0.52;0.52;;;10.70;99.90;;;;;;5091635;28;20187;-70
2021/06/14 03:21:30;;;;;;;0.52;0.52;;;10.70;99.90;;;;;;5073602;28;20580;-72
2021/06/14 03:23:57;;;;;;;0.20;0.20;;;10.70;99.90;;;;;;5091723;28;20212;-70
2021/06/14 03:26:28;;;;;;;0.30;0.30;;;10.70;99.90;;;;;;5091743;28;20160;-70
2021/06/14 03:28:57;;;;;;;0.60;0.60;;;10.80;99.90;;;;;;5091441;28;20229;-70
2021/06/14 03:31:23;;;;;;;1.10;1.10;;;10.80;99.90;;;;;;5091418;28;20152;-71
2021/06/14 03:33:50;;;;;;;0.20;0.20;;;10.90;99.90;;;;;;5091589;28;20166;-72
2021/06/14 03:36:20;;;;;;;0.10;0.10;;;10.90;99.90;;;;;;5073199;28;20203;-70
2021/06/14 03:38:51;;;;;;;0.20;0.20;;;11.00;99.90;;;;;;5073172;28;20199;-70
2021/06/14 03:41:18;;;;;;;0.10;0.10;;;11.00;99.90;;;;;;5090842;28;20219;-70
2021/06/14 03:43:45;;;;;;;1.02;1.02;;;11.10;99.90;;;;;;5090792;28;20198;-70
2021/06/14 03:46:11;;;;;;;0.32;0.32;;;11.20;99.90;;;;;;5091146;28;20172;-70
2021/06/14 03:48:38;;;;;;;0.32;0.32;;;11.40;99.90;;;;;;5072778;28;20221;-71
2021/06/14 03:51:05;;;;;;;0.10;0.10;;;11.50;99.90;;;;;;5073022;28;20180;-70
2021/06/14 03:53:31;;;;;;;0.40;0.40;;;11.90;99.90;;;;;;5073095;28;20164;-71
2021/06/14 03:56:02;;;;;;;0.38;0.38;;;12.40;99.90;;;;;;5072876;28;20188;-71
2021/06/14 03:58:28;;;;;;;0.40;0.40;;;12.90;99.90;;;;;;5090557;28;20229;-71
2021/06/14 04:00:54;;;;;;;0.20;0.20;;;13.40;99.90;;;;;;5090886;28;20219;-70
2021/06/14 04:03:23;;;;;;;0.10;0.10;;;13.90;99.90;;;;;;5090669;28;20157;-70
2021/06/14 04:05:49;;;;;;;0.25;0.25;;;14.30;99.90;;;;;;5090899;28;20243;-70
2021/06/14 04:08:15;;;;;;;0.10;0.10;;;14.40;99.90;;;;;;5071936;28;20199;-70
2021/06/14 04:10:41;;;;;;;0.47;0.47;;;14.60;99.90;;;;;;5090495;28;20224;-70
2021/06/14 04:13:09;;;;;;;0.20;0.20;;;14.90;99.90;;;;;;5090746;28;20168;-71
2021/06/14 04:15:35;;;;;;;0.00;0.00;;;15.10;99.90;;;;;;5090339;28;20192;-70
2021/06/14 04:18:01;;;;;;;0.10;0.10;;;15.20;99.90;;;;;;5072468;28;20228;-70
2021/06/14 04:20:27;;;;;;;0.30;0.30;;;15.40;99.90;;;;;;5090314;28;20156;-70
2021/06/14 04:22:53;;;;;;;1.55;0.63;;;15.20;99.90;;;;;;5072302;28;20198;-71
2021/06/14 04:25:19;;;;;;;0.30;0.30;;;15.10;99.90;;;;;;5090462;28;20637;-71
2021/06/14 04:27:46;;;;;;;0.77;0.70;;;15.20;99.90;;;;;;5072262;28;20164;-71
2021/06/14 04:30:13;;;;;;;0.15;0.15;;;15.80;99.90;;;;;;5089901;28;20512;-70
2021/06/14 04:32:39;;;;;;;0.43;0.43;;;15.50;99.90;;;;;;5090126;28;20156;-70
2021/06/14 04:35:06;;;;;;;0.20;0.20;;;15.50;99.90;;;;;;5090191;28;20653;-70
2021/06/14 04:37:32;;;;;;;0.40;0.40;;;15.60;99.90;;;;;;5089834;28;20160;-70
2021/06/14 04:39:59;;;;;;;0.03;0.03;;;16.00;99.90;;;;;;5089584;28;20356;-70
2021/06/14 04:42:27;;;;;;;0.45;0.43;;;15.90;99.90;;;;;;5071678;28;20227;-70
2021/06/14 04:44:54;;;;;;;0.30;0.30;;;16.10;99.90;;;;;;5089611;28;20175;-69
2021/06/14 04:47:20;;;;;;;4.05;1.90;;;16.10;99.90;;;;;;5071860;28;20195;-70
2021/06/14 04:49:47;;;;;;;0.20;0.20;;;16.00;99.90;;;;;;5071899;28;20196;-71
2021/06/14 04:52:13;;;;;;;0.52;0.52;;;16.10;99.90;;;;;;5089609;28;20155;-70
2021/06/14 04:54:40;;;;;;;1.23;1.20;;;16.20;99.90;;;;;;5071866;28;20168;-70
2021/06/14 04:57:07;;;;;;;0.28;0.28;;;16.30;99.90;;;;;;5089453;28;20176;-70
2021/06/14 04:59:33;;;;;;;0.88;0.55;;;16.90;99.90;;;;;;5071429;28;20218;-70
2021/06/14 05:02:00;;;;;;;0.50;0.50;;;17.30;99.90;;;;;;5089219;28;20156;-71
2021/06/14 05:04:26;;;;;;;0.10;0.10;;;17.70;99.90;;;;;;5089214;28;20240;-71
2021/06/14 05:06:52;;;;;;;0.25;0.25;;;18.10;99.90;;;;;;5089659;28;20164;-71
2021/06/14 05:09:18;;;;;;;2.15;0.70;;;18.50;99.90;;;;;;5089199;28;20253;-71
2021/06/14 05:11:45;;;;;;;0.30;0.30;;;18.90;99.90;;;;;;5089446;28;20238;-71
2021/06/14 05:14:11;;;;;;;0.68;0.68;;;19.40;99.90;;;;;;5089190;28;20157;-71
2021/06/14 05:16:37;;;;;;;0.47;0.30;;;20.20;99.90;;;;;;5089033;28;20191;-71
2021/06/14 05:19:02;;;;;;;0.88;0.88;;;20.20;99.90;;;;;;5070546;28;20193;-71
2021/06/14 05:21:28;;;;;;;0.35;0.35;;;21.00;99.90;;;;;;5089089;28;20164;-71
2021/06/14 05:23:54;;;;;;;0.32;0.30;;;21.50;99.90;;;;;;5089116;28;20155;-71
2021/06/14 05:26:20;;;;;;;0.10;0.10;;;22.20;99.90;;;;;;5088891;28;20164;-71
2021/06/14 05:28:46;;;;;;;0.47;0.47;;;22.80;99.90;;;;;;5089261;28;20286;-71
2021/06/14 05:31:12;;;;;;;0.25;0.25;;;22.40;99.90;;;;;;5089053;28;20166;-71
2021/06/14 05:33:37;;;;;;;0.30;0.30;;;22.40;99.90;;;;;;5089162;28;20524;-71
2021/06/14 05:36:05;;;;;;;0.63;0.63;;;21.80;99.90;;;;;;5088819;28;20186;-71
2021/06/14 05:38:31;;;;;;;0.38;0.20;;;21.80;99.90;;;;;;5089116;28;20659;-70
2021/06/14 05:40:57;;;;;;;0.75;0.75;;;21.60;99.90;;;;;;5088517;28;20163;-70
2021/06/14 05:43:23;;;;;;;0.28;0.28;;;21.00;99.90;;;;;;5089112;28;20163;-70
2021/06/14 05:45:49;;;;;;;2.72;0.93;;;21.50;99.90;;;;;;5088657;28;20163;-71
2021/06/14 05:48:15;;;;;;;0.35;0.35;;;22.10;99.90;;;;;;5088749;28;20195;-70
2021/06/14 05:50:41;;;;;;;0.10;0.10;;;21.70;99.90;;;;;;5088482;28;20216;-70
2021/06/14 05:53:07;;;;;;;0.40;0.22;;;21.30;99.90;;;;;;5088767;28;20159;-70
2021/06/14 05:55:34;;;;;;;0.43;0.43;;;21.60;99.90;;;;;;5088482;28;20198;-70
2021/06/14 05:58:00;;;;;;;0.82;0.82;;;22.40;99.90;;;;;;5088927;28;20191;-70
2021/06/14 06:00:26;;;;;;;0.20;0.20;;;23.20;99.90;;;;;;5088734;28;20242;-70
2021/06/14 06:02:52;;;;;;;1.23;0.90;;;22.70;99.90;;;;;;5088539;28;20159;-70
2021/06/14 06:05:18;;;;;;;1.65;0.52;;;21.40;99.90;;;;;;5088869;28;20328;-70
2021/06/14 06:07:45;;;;;;;0.45;0.45;;;21.00;99.90;;;;;;5070670;28;20274;-70
2021/06/14 06:10:11;;;;;;;0.60;0.60;;;21.90;99.90;;;;;;5085242;28;20229;-70
2021/06/14 06:12:38;;;;;;;0.30;0.30;;;21.60;99.90;;;;;;5066899;28;20180;-70
2021/06/14 06:15:09;;;;;;;0.17;0.17;;;21.70;99.90;;;;;;5072229;28;20197;-70
2021/06/14 06:17:35;;;;;;;0.77;0.60;;;23.10;99.90;;;;;;5088927;28;20162;-70
2021/06/14 06:20:04;;;;;;;0.60;0.60;;;23.00;99.90;;;;;;5088548;28;20188;-70
2021/06/14 06:22:29;;;;;;;0.70;0.70;;;23.20;99.90;;;;;;5070515;28;20175;-70
2021/06/14 06:24:55;;;;;;;1.90;0.77;;;23.60;99.90;;;;;;5088142;28;20160;-70
2021/06/14 06:27:21;;;;;;;0.45;0.45;;;23.90;99.90;;;;;;5088550;28;20170;-70
2021/06/14 06:29:47;;;;;;;0.10;0.10;;;23.30;99.90;;;;;;5088642;28;20218;-70
2021/06/14 06:32:13;;;;;;;14.80;0.98;;;24.00;99.90;;;;;;5091449;28;20158;-70
2021/06/14 06:34:39;;;;;;;0.45;0.45;;;22.30;99.90;;;;;;5092498;28;20166;-70
2021/06/14 06:37:05;;;;;;;0.25;0.25;;;21.80;99.90;;;;;;5092210;28;20183;-70
2021/06/14 06:39:31;;;;;;;0.52;0.52;;;21.00;99.90;;;;;;5092290;28;20195;-70
2021/06/14 06:42:00;;;;;;;1.10;1.00;;;20.90;99.90;;;;;;5070641;28;20223;-70
2021/06/14 06:44:26;;;;;;;0.20;0.20;;;21.20;99.90;;;;;;5072173;28;20170;-70
2021/06/14 06:46:52;;;;;;;0.20;0.20;;;21.70;99.90;;;;;;5071896;28;20520;-70
2021/06/14 06:49:18;;;;;;;16.20;1.15;;;22.00;99.90;;;;;;5071875;28;20228;-70
2021/06/14 06:51:44;;;;;;;0.57;0.40;;;21.80;99.90;;;;;;5071656;28;20160;-70
2021/06/14 06:54:13;;;;;;;0.28;0.28;;;22.20;99.90;;;;;;5070035;28;20176;-70
2021/06/14 06:56:44;;;;;;;0.30;0.30;;;22.00;99.90;;;;;;5071810;28;20187;-70
2021/06/14 06:59:11;;;;;;;0.50;0.47;;;21.60;99.90;;;;;;5070522;28;20188;-70
2021/06/14 07:01:37;;;;;;;7.53;0.77;;;21.10;99.90;;;;;;5071868;28;20157;-70
2021/06/14 07:04:04;;;;;;;1.50;1.17;;;21.10;99.90;;;;;;5071922;28;20163;-70
2021/06/14 07:06:30;;;;;;;0.47;0.47;;;22.00;99.90;;;;;;5071996;28;20636;-71
2021/06/14 07:08:57;;;;;;;0.40;0.40;;;22.30;99.90;;;;;;5071601;28;20188;-70
2021/06/14 07:11:27;;;;;;;0.10;0.10;;;22.70;99.90;;;;;;5071455;28;20160;-70
2021/06/14 07:13:54;;;;;;;1.25;0.45;;;22.30;99.90;;;;;;5071465;28;20202;-70
2021/06/14 07:16:20;;;;;;;0.45;0.45;;;22.40;99.90;;;;;;5071357;28;20198;-70
2021/06/14 07:18:46;;;;;;;0.30;0.30;;;22.50;99.90;;;;;;5070264;28;20191;-70
2021/06/14 07:21:13;;;;;;;0.10;0.10;;;22.60;99.90;;;;;;5071391;28;20231;-70
2021/06/14 07:23:39;;;;;;;12.52;0.90;;;23.40;99.90;;;;;;5071333;28;20298;-71
2021/06/14 07:26:05;;;;;;;1.70;0.65;;;24.50;99.90;;;;;;5074354;28;20183;-71
2021/06/14 07:28:33;;;;;;;1.00;0.93;;;24.70;99.90;;;;;;5079396;28;20200;-71
2021/06/14 07:31:00;;;;;;;12.60;0.40;;;25.40;99.90;;;;;;5065974;28;20190;-70
2021/06/14 07:33:26;;;;;;;0.43;0.30;;;25.30;99.90;;;;;;5070489;28;20240;-71
2021/06/14 07:35:53;;;;;;;0.47;0.47;;;25.90;99.90;;;;;;5069951;28;20215;-71
2021/06/14 07:38:18;;;;;;;13.30;0.88;;;24.90;99.90;;;;;;5068075;28;20196;-70
2021/06/14 07:40:45;;;;;;;0.50;0.50;;;25.00;99.90;;;;;;5069798;28;20628;-70
2021/06/14 07:43:12;;;;;;;0.47;0.47;;;25.00;99.90;;;;;;5090215;28;20242;-70
2021/06/14 07:45:40;;;;;;;1.15;1.02;;;25.40;99.90;;;;;;5073135;28;20171;-71
2021/06/14 07:48:06;;;;;;;0.20;0.15;;;26.30;99.90;;;;;;5091098;28;20175;-71
2021/06/14 07:50:33;;;;;;;0.50;0.50;;;26.20;99.90;;;;;;5091055;28;20151;-71
2021/06/14 07:53:00;;;;;;;6.88;2.00;;;26.40;99.90;;;;;;5091009;28;20156;-70
2021/06/14 07:55:26;;;;;;;0.30;0.30;;;25.40;99.90;;;;;;5090845;28;20198;-70
2021/06/14 07:57:52;;;;;;;0.10;0.10;;;25.50;99.90;;;;;;5090792;28;20155;-71
2021/06/14 08:00:18;;;;;;;0.43;0.43;;;25.70;99.90;;;;;;5085613;28;20195;-70
2021/06/14 08:02:47;;;;;;;0.65;0.63;;;25.40;99.90;;;;;;5071467;28;20175;-70
2021/06/14 08:05:13;;;;;;;1.35;0.40;;;24.30;99.90;;;;;;5090610;28;20158;-70
2021/06/14 08:07:40;;;;;;;0.20;0.20;;;23.50;99.90;;;;;;5089464;28;20167;-70
2021/06/14 08:10:08;;;;;;;0.52;0.52;;;23.90;99.90;;;;;;5090256;28;20191;-70
2021/06/14 08:12:38;;;;;;;0.65;0.65;;;24.90;99.90;;;;;;5094322;28;20178;-69
2021/06/14 08:15:05;;;;;;;0.38;0.38;;;24.70;99.90;;;;;;5106234;28;20163;-70
2021/06/14 08:17:31;;;;;;;0.30;0.30;;;24.50;99.90;;;;;;5071600;28;20160;-70
2021/06/14 08:20:08;;;;;;;0.40;0.40;;;24.60;99.90;;;;;;5090042;28;20616;-70
2021/06/14 08:25:07;;;;;;;0.10;0.10;;;25.50;99.90;;;;;;5090516;28;20171;-70
2021/06/14 08:27:36;;;;;;;0.95;0.85;;;26.10;99.90;;;;;;5090375;28;20215;-70
2021/06/14 08:30:07;;;;;;;0.57;0.57;;;25.50;99.90;;;;;;5089909;28;20187;-69
2021/06/14 08:32:33;;;;;;;0.30;0.30;;;24.90;99.90;;;;;;5090220;28;20147;-70
2021/06/14 08:34:59;;;;;;;0.45;0.38;;;25.00;99.90;;;;;;5090270;28;20160;-71
2021/06/14 08:37:25;;;;;;;1.58;0.90;;;26.50;99.90;;;;;;5090145;28;20174;-71
2021/06/14 08:39:52;;;;;;;8.00;0.90;;;26.80;99.90;;;;;;5071797;28;20203;-71
2021/06/14 08:42:17;;;;;;;0.52;0.52;;;26.90;99.90;;;;;;5068504;28;20223;-71
2021/06/14 08:44:44;;;;;;;0.52;0.52;;;26.70;99.90;;;;;;5068560;28;20175;-71
2021/06/14 08:47:11;;;;;;;0.32;0.32;;;26.70;99.90;;;;;;5070115;28;20171;-71
2021/06/14 08:49:38;;;;;;;1.05;1.00;;;25.90;99.90;;;;;;5068503;28;20633;-71
2021/06/14 08:52:06;;;;;;;1.70;0.55;;;25.70;99.90;;;;;;5069954;28;20164;-71
2021/06/14 08:54:33;;;;;;;0.30;0.30;;;26.40;99.90;;;;;;5067323;28;20210;-71
2021/06/14 08:56:59;;;;;;;0.30;0.30;;;27.50;99.90;;;;;;5069528;28;20218;-71
2021/06/14 08:59:25;;;;;;;0.80;0.30;;;28.30;99.90;;;;;;5069470;28;20187;-71
2021/06/14 09:01:52;;;;;;;0.30;0.30;;;28.60;99.90;;;;;;5069445;28;20290;-71
2021/06/14 09:04:19;;;;;;;0.52;0.52;;;27.90;99.90;;;;;;5068426;28;20168;-70
2021/06/14 09:06:46;;;;;;;0.25;0.25;;;26.30;99.90;;;;;;5069386;28;20651;-70
2021/06/14 09:09:12;;;;;;;1.52;0.85;;;25.40;99.90;;;;;;5069456;28;20652;-70
2021/06/14 09:11:51;;;;;;;0.38;0.38;;;25.00;99.90;;;;;;5069627;28;20164;-70
2021/06/14 09:14:19;;;;;;;0.43;0.43;;;25.20;99.90;;;;;;5069275;28;20192;-70
2021/06/14 09:16:46;;;;;;;0.20;0.20;;;25.20;99.90;;;;;;5067775;28;20202;-70
2021/06/14 09:19:27;;;;;;;0.38;0.38;;;24.40;99.90;;;;;;5067995;28;20203;-70
2021/06/14 09:21:56;;;;;;;1.45;0.75;;;24.10;99.90;;;;;;5069329;28;20171;-70
2021/06/14 09:24:26;;;;;;;0.20;0.20;;;24.60;99.90;;;;;;5069285;28;20162;-70
2021/06/14 09:26:52;;;;;;;1.30;0.93;;;25.50;99.90;;;;;;5069227;28;20164;-70
2021/06/14 09:29:27;;;;;;;0.40;0.40;;;26.10;99.90;;;;;;5069157;28;20215;-70
2021/06/14 09:32:00;;;;;;;0.60;0.60;;;25.40;99.90;;;;;;5069147;28;20152;-70
2021/06/14 09:34:46;;;;;;;0.45;0.45;;;25.60;99.90;;;;;;5069055;28;20168;-70
2021/06/14 09:37:15;;;;;;;0.28;0.28;;;25.30;99.90;;;;;;5068855;28;20184;-70
2021/06/14 09:39:45;;;;;;;0.77;0.50;;;24.50;99.90;;;;;;5068968;28;20188;-70
2021/06/14 09:42:20;;;;;;;0.70;0.70;;;24.70;99.90;;;;;;5067422;28;20265;-70
2021/06/14 09:44:48;;;;;;;3.85;1.13;;;25.60;99.90;;;;;;5067307;28;20160;-70
2021/06/14 09:47:15;;;;;;;0.40;0.40;;;25.90;99.90;;;;;;5068901;28;20156;-70
2021/06/14 09:49:54;;;;;;;0.22;0.22;;;25.20;99.90;;;;;;5067526;28;20294;-70
2021/06/14 09:52:22;;;;;;;4.10;0.80;;;25.50;99.90;;;;;;5068983;28;20220;-70
2021/06/14 09:54:48;;;;;;;0.82;0.82;;;25.60;99.90;;;;;;5067483;28;20163;-70
2021/06/14 09:57:27;;;;;;;0.30;0.30;;;25.40;99.90;;;;;;5068716;28;20510;-70
2021/06/14 10:00:04;;;;;;;3.45;0.73;;;25.40;99.90;;;;;;5068586;28;20227;-70
2021/06/14 10:02:35;;;;;;;0.80;0.50;;;24.10;99.90;;;;;;5068796;28;20176;-70
2021/06/14 10:05:01;;;;;;;0.30;0.30;;;25.00;99.90;;;;;;5069548;28;20175;-71
2021/06/14 10:07:27;;;;;;;0.75;0.75;;;25.80;99.90;;;;;;5072852;28;20609;-70
2021/06/14 10:09:54;;;;;;;5.82;1.55;;;25.60;99.90;;;;;;5072439;28;20188;-70
2021/06/14 10:12:26;;;;;;;0.10;0.10;;;25.50;99.90;;;;;;5069541;28;20183;-70
2021/06/14 10:14:53;;;;;;;1.13;0.60;;;25.30;99.90;;;;;;5071450;28;20171;-71
2021/06/14 10:17:39;;;;;;;1.55;0.88;;;25.90;99.90;;;;;;5072153;28;20206;-71
2021/06/14 10:20:11;;;;;;;0.38;0.38;;;26.40;99.90;;;;;;5072434;28;20194;-71
2021/06/14 10:22:38;;;;;;;0.68;0.68;;;26.70;99.90;;;;;;5071858;28;20191;-71
2021/06/14 10:25:06;;;;;;;1.48;0.93;;;27.60;99.90;;;;;;5072009;28;20163;-71
2021/06/14 10:27:33;;;;;;;0.25;0.22;;;27.90;99.90;;;;;;5072183;28;20152;-71
2021/06/14 10:30:01;;;;;;;0.77;0.57;;;27.70;99.90;;;;;;5072587;28;20196;-71
2021/06/14 10:32:27;;;;;;;0.68;0.65;;;26.90;99.90;;;;;;5071185;28;20153;-71
2021/06/14 10:34:54;;;;;;;0.10;0.10;;;26.90;99.90;;;;;;5071123;28;20172;-71
2021/06/14 10:37:23;;;;;;;0.65;0.65;;;27.30;99.90;;;;;;5072219;28;20186;-71
2021/06/14 10:39:54;;;;;;;0.57;0.57;;;26.70;99.90;;;;;;5071927;28;20199;-71
2021/06/14 10:42:21;;;;;;;0.73;0.73;;;25.70;99.90;;;;;;5069801;28;20223;-70
2021/06/14 10:44:47;;;;;;;1.17;1.08;;;25.30;99.90;;;;;;5071871;28;20152;-71
2021/06/14 10:47:14;;;;;;;1.50;1.13;;;25.60;99.90;;;;;;5071927;28;20167;-71
2021/06/14 10:49:40;;;;;;;0.68;0.68;;;27.10;99.90;;;;;;5070419;28;20302;-72
2021/06/14 10:52:07;;;;;;;0.13;0.13;;;27.30;99.90;;;;;;5071206;28;20160;-71
2021/06/14 10:54:46;;;;;;;0.32;0.32;;;27.10;99.90;;;;;;5072031;28;20156;-71
2021/06/14 10:57:13;;;;;;;0.30;0.30;;;27.40;99.90;;;;;;5071812;28;20199;-71
2021/06/14 10:59:42;;;;;;;0.90;0.35;;;26.80;99.80;;;;;;5070256;28;20573;-72
2021/06/14 11:02:14;;;;;;;1.67;0.65;;;26.50;99.90;;;;;;5070076;28;20161;-71
2021/06/14 11:04:42;;;;;;;0.70;0.70;;;26.00;99.90;;;;;;5071379;28;20240;-71
2021/06/14 11:07:08;;;;;;;0.73;0.73;;;25.60;99.90;;;;;;5070338;28;20170;-71
2021/06/14 11:09:42;;;;;;;0.30;0.30;;;26.40;99.90;;;;;;5071797;28;20212;-72
2021/06/14 11:12:10;;;;;;;0.88;0.85;;;27.70;99.90;;;;;;5070412;28;20168;-71
2021/06/14 11:14:36;;;;;;;1.92;0.93;;;28.00;98.60;;;;;;5071903;28;20160;-71
2021/06/14 11:17:26;;;;;;;0.32;0.32;;;26.40;99.30;;;;;;5069234;28;20194;-71
2021/06/14 11:20:07;;;;;;;5.03;0.65;;;28.00;99.50;;;;;;5062667;28;20191;-72
2021/06/14 11:22:46;;;;;;;5.72;0.90;;;29.40;99.90;;;;;;5071720;28;20152;-72
2021/06/14 11:25:31;;;;;;;1.60;0.63;;;28.40;99.90;;;;;;5071178;28;20170;-71
2021/06/14 11:28:04;;;;;;;11.15;0.80;;;28.00;98.50;;;;;;5071278;28;20168;-71
2021/06/14 11:30:36;;;;;;;0.45;0.43;;;27.50;99.80;;;;;;5070973;28;20256;-71
2021/06/14 11:33:03;;;;;;;0.50;0.28;;;25.60;99.90;;;;;;5071418;28;20164;-71
2021/06/14 11:35:31;;;;;;;1.65;0.55;;;25.90;99.90;;;;;;5076856;28;20195;-71
2021/06/14 11:38:00;;;;;;;0.17;0.17;;;25.70;99.90;;;;;;5089841;28;20166;-71
2021/06/14 11:40:32;;;;;;;0.20;0.20;;;26.00;99.90;;;;;;5090710;28;20191;-71
2021/06/14 11:43:10;;;;;;;0.65;0.57;;;26.60;99.00;;;;;;5108696;28;20210;-71
2021/06/14 11:45:46;;;;;;;0.50;0.50;;;26.30;99.10;;;;;;5111404;28;20154;-72
2021/06/14 11:48:20;;;;;;;11.15;0.90;;;27.30;99.90;;;;;;5111332;28;20154;-72
2021/06/14 11:50:46;;;;;;;0.82;0.82;;;28.00;99.30;;;;;;5092912;28;20258;-71
2021/06/14 11:53:11;;;;;;;0.68;0.50;;;28.20;98.30;;;;;;5093050;28;20252;-71
2021/06/14 11:55:41;;;;;;;0.30;0.30;;;27.30;98.80;;;;;;5092821;28;20303;-71
2021/06/14 11:58:11;;;;;;;0.38;0.38;;;26.70;99.10;;;;;;5102164;28;20190;-71
2021/06/14 12:00:43;;;;;;;0.70;0.70;;;26.30;99.90;;;;;;5072268;28;20191;-71
2021/06/14 12:03:22;;;;;;;0.70;0.70;;;26.70;99.90;;;;;;5086111;28;20195;-71
2021/06/14 12:05:50;;;;;;;0.77;0.52;;;27.60;99.70;;;;;;5089465;28;20182;-71
2021/06/14 12:08:22;;;;;;;0.40;0.35;;;27.50;98.70;;;;;;5090456;28;20155;-71
2021/06/14 12:10:59;;;;;;;1.10;0.95;;;27.60;99.60;;;;;;5071750;28;20214;-71
2021/06/14 12:13:26;;;;;;;2.63;0.52;;;27.80;98.10;;;;;;5088850;28;20643;-71
2021/06/14 12:15:55;;;;;;;0.70;0.70;;;26.90;99.60;;;;;;5089181;28;20199;-71
2021/06/14 12:18:21;;;;;;;0.43;0.43;;;25.70;99.80;;;;;;5071740;28;20167;-71
2021/06/14 12:20:54;;;;;;;3.58;1.23;;;24.30;99.90;;;;;;5089577;28;20183;-70
2021/06/14 12:23:20;;;;;;;0.70;0.70;;;23.60;99.90;;;;;;5089862;28;20158;-71
2021/06/14 12:25:49;;;;;;;0.50;0.40;;;23.40;99.90;;;;;;5089240;28;20239;-71
2021/06/14 12:28:18;;;;;;;0.30;0.30;;;23.40;99.90;;;;;;5071715;28;20183;-71
2021/06/14 12:30:47;;;;;;;1.27;1.02;;;23.20;99.90;;;;;;5071466;28;20234;-71
2021/06/14 12:33:26;;;;;;;1.75;1.33;;;23.00;99.90;;;;;;5089689;28;20168;-71
2021/06/14 12:35:54;;;;;;;2.92;0.50;;;23.00;99.90;;;;;;5089848;28;20272;-71
2021/06/14 12:38:21;;;;;;;1.20;0.73;;;23.10;99.90;;;;;;5070517;28;20160;-71
2021/06/14 12:40:47;;;;;;;0.68;0.68;;;23.30;99.90;;;;;;5089425;28;20195;-70
2021/06/14 12:43:14;;;;;;;0.17;0.17;;;23.20;99.90;;;;;;5089048;28;20246;-71
2021/06/14 12:45:42;;;;;;;0.52;0.52;;;22.90;99.90;;;;;;5089873;28;20635;-71
2021/06/14 12:48:10;;;;;;;0.20;0.20;;;22.80;99.90;;;;;;5088780;28;20152;-70
2021/06/14 12:50:43;;;;;;;0.40;0.40;;;23.00;99.90;;;;;;5089526;28;20187;-70
2021/06/14 12:53:10;;;;;;;0.70;0.68;;;23.00;99.90;;;;;;5071607;28;20172;-70
2021/06/14 12:55:41;;;;;;;3.55;0.70;;;23.30;99.90;;;;;;5070830;28;20233;-70